Etusivu
METAR-TAF:

METAR-TAF

Lentoasemat :

Franklin County, Vermont, Yhdysvallat

Leveyspiiri: 44-56-25N, Pituuspiiri: 073-05-51W, korkeus merenpinnasta: 69 m

Tämänhetkinen sää

Tämä raportti tehtiin 21 minuuttia sitten, kello 07.56 UTC
tyyntä
Lämpötila 2°C
Kosteus 93%
Ilmanpaine 1005 hPa
Näkyvyys: 6.4 km
Hajonneita pilviä 3500 ft:n korkeudessa
Pilvistä 4100 ft:n korkeudessa
tuntematon

METAR: KFSO 260756Z AUTO 00000KT 4SM UP BKN035 OVC041 02/01 A2969 RMK AO2 T00150008

Aika: 03:17 (08:17 UTC)


TAF: puuttuu

Säähavainnot ja -ennusteet yli 4000 lentoasemalta (METAR- ja TAF-raportit).

Käytössä olevat sääasemat on merkitty karttaan keltaisilla ja punaisilla pisteillä.

Aseta hiiri pisteen päälle nähdäksesi sääaseman nimen.

Klikkaa sitten nähdäksesi säähavainnot ja -ennusteet.

Kartan vaihtaminen: klikkaa mustalla rastilla varustettuja vihreitä pisteitä, niin voit zoomata sisään; viivalla varustettua vihreää pistettä, niin voit zoomata ulos tai vihreitä nuolia, niin pääset viereisille kartoille.


METAR-TAF: